PWSweather.com
Personal Weather Stations
Station Observations
DW1039
Liberty & Fairfield Townships, Hamilton, OH 45011

Liberty & Fairfield TownshipsHamilton, OH 45011

Lat: 39.3933, Lon: -84.477

Elevation: 780

Station Type: Davis Vantage Pro2 (Daytime Fan Aspirated)

http://www.lfweathercenter.com/

High Low Average
Temperature 20.4°F-6.4°C 16.0°F-8.9°C 18.0°F-7.8°C
Dew Point 15.4°F-9.2°C 10.8°F-11.8°C 12.9°F-10.6°C
Winds 22.0 mph 35.4 kmh 3.0 mph 4.8 kmh 10.0 mph WSW16.1 kmh WSW
Wind Gusts 31.0 mph49.9 kmh 11.0 mph17.7 kmh 20.0 mph32.2 kmh
Humidity 88% 75% 80%
Pressure 30.13 in1020.3 mb 29.74 in1007.1 mb -
Precipitation 0.00 in0.0 mm - -
Hour Temp Dew Point Humidity Winds Wind Gusts Pressure Precip Precip Rate Daily Precip Total
12:00 AM 17.2°F-8.2°C 12.4°F-10.9°C 81% 17.0 mph SW27.4 kmh SW 17.0 mph27.4 kmh 29.74 in1007.1 mb 0.00 in0.0 mm 0.00 in/hr0.0 mm/hr 0.00 in0.0 mm
12:10 AM 16.8°F-8.4°C 11.7°F-11.3°C 80% 14.0 mph SW22.5 kmh SW 22.0 mph35.4 kmh 29.74 in1007.1 mb 0.00 in0.0 mm 0.00 in/hr0.0 mm/hr 0.00 in0.0 mm
12:20 AM 16.7°F-8.5°C 11.9°F-11.2°C 81% 13.0 mph SW20.9 kmh SW 18.0 mph29.0 kmh 29.74 in1007.1 mb 0.00 in0.0 mm 0.00 in/hr0.0 mm/hr 0.00 in0.0 mm
12:50 AM 16.4°F-8.7°C 11.6°F-11.3°C 81% 15.0 mph WSW24.1 kmh WSW 19.0 mph30.6 kmh 29.74 in1007.1 mb 0.00 in0.0 mm 0.00 in/hr0.0 mm/hr 0.00 in0.0 mm
01:00 AM 16.4°F-8.7°C 11.3°F-11.5°C 80% 17.0 mph SW27.4 kmh SW 19.0 mph30.6 kmh 29.74 in1007.1 mb 0.00 in0.0 mm 0.00 in/hr0.0 mm/hr 0.00 in0.0 mm
01:10 AM 16.6°F-8.6°C 11.2°F-11.6°C 79% 9.0 mph SW14.5 kmh SW 24.0 mph38.6 kmh 29.74 in1007.1 mb 0.00 in0.0 mm 0.00 in/hr0.0 mm/hr 0.00 in0.0 mm
01:20 AM 16.4°F-8.7°C 11.6°F-11.3°C 81% 14.0 mph WSW22.5 kmh WSW 21.0 mph33.8 kmh 29.75 in1007.5 mb 0.00 in0.0 mm 0.00 in/hr0.0 mm/hr 0.00 in0.0 mm
01:30 AM 16.5°F-8.6°C 12.0°F-11.1°C 82% 7.0 mph WSW11.3 kmh WSW 20.0 mph32.2 kmh 29.75 in1007.5 mb 0.00 in0.0 mm 0.00 in/hr0.0 mm/hr 0.00 in0.0 mm
01:40 AM 16.3°F-8.7°C 12.9°F-10.6°C 86% 10.0 mph WSW16.1 kmh WSW 14.0 mph22.5 kmh 29.75 in1007.5 mb 0.00 in0.0 mm 0.00 in/hr0.0 mm/hr 0.00 in0.0 mm
01:50 AM 16.4°F-8.7°C 13.5°F-10.3°C 88% 15.0 mph W24.1 kmh W 17.0 mph27.4 kmh 29.75 in1007.5 mb 0.00 in0.0 mm 0.00 in/hr0.0 mm/hr 0.00 in0.0 mm
02:01 AM 16.0°F-8.9°C 13.1°F-10.5°C 88% 12.0 mph SW19.3 kmh SW 18.0 mph29.0 kmh 29.75 in1007.5 mb 0.00 in0.0 mm 0.00 in/hr0.0 mm/hr 0.00 in0.0 mm
02:10 AM 16.1°F-8.8°C 13.2°F-10.4°C 88% 12.0 mph SW19.3 kmh SW 19.0 mph30.6 kmh 29.75 in1007.5 mb 0.00 in0.0 mm 0.00 in/hr0.0 mm/hr 0.00 in0.0 mm
02:20 AM 16.1°F-8.8°C 13.2°F-10.4°C 88% 15.0 mph WSW24.1 kmh WSW 24.0 mph38.6 kmh 29.75 in1007.5 mb 0.00 in0.0 mm 0.00 in/hr0.0 mm/hr 0.00 in0.0 mm
02:30 AM 16.0°F-8.9°C 12.6°F-10.8°C 86% 12.0 mph SSW19.3 kmh SSW 21.0 mph33.8 kmh 29.75 in1007.5 mb 0.01 in0.3 mm 0.06 in/hr1.5 mm/hr 0.01 in0.3 mm
02:40 AM 16.1°F-8.8°C 12.1°F-11.1°C 84% 7.0 mph WSW11.3 kmh WSW 22.0 mph35.4 kmh 29.76 in1007.8 mb 0.01 in0.3 mm 0.00 in/hr0.0 mm/hr 0.01 in0.3 mm
02:50 AM 16.0°F-8.9°C 11.8°F-11.2°C 83% 7.0 mph SW11.3 kmh SW 25.0 mph40.2 kmh 29.76 in1007.8 mb 0.01 in0.3 mm 0.00 in/hr0.0 mm/hr 0.01 in0.3 mm
03:00 AM 16.1°F-8.8°C 11.9°F-11.2°C 83% 15.0 mph SW24.1 kmh SW 24.0 mph38.6 kmh 29.76 in1007.8 mb 0.01 in0.3 mm 0.00 in/hr0.0 mm/hr 0.01 in0.3 mm
03:10 AM 16.2°F-8.8°C 12.0°F-11.1°C 83% 15.0 mph WSW24.1 kmh WSW 26.0 mph41.8 kmh 29.76 in1007.8 mb 0.01 in0.3 mm 0.00 in/hr0.0 mm/hr 0.01 in0.3 mm
03:20 AM 16.2°F-8.8°C 11.7°F-11.3°C 82% 7.0 mph WSW11.3 kmh WSW 26.0 mph41.8 kmh 29.76 in1007.8 mb 0.01 in0.3 mm 0.00 in/hr0.0 mm/hr 0.01 in0.3 mm
03:30 AM 16.2°F-8.8°C 11.1°F-11.6°C 80% 19.0 mph WSW30.6 kmh WSW 28.0 mph45.1 kmh 29.76 in1007.8 mb 0.00 in0.0 mm 0.00 in/hr0.0 mm/hr 0.01 in0.3 mm
03:40 AM 16.2°F-8.8°C 11.1°F-11.6°C 80% 14.0 mph SSW22.5 kmh SSW 20.0 mph32.2 kmh 29.76 in1007.8 mb 0.00 in0.0 mm 0.00 in/hr0.0 mm/hr 0.01 in0.3 mm
03:50 AM 16.2°F-8.8°C 11.1°F-11.6°C 80% 12.0 mph W19.3 kmh W 24.0 mph38.6 kmh 29.77 in1008.1 mb 0.00 in0.0 mm 0.00 in/hr0.0 mm/hr 0.01 in0.3 mm
04:00 AM 16.2°F-8.8°C 10.8°F-11.8°C 79% 5.0 mph WSW8.0 kmh WSW 28.0 mph45.1 kmh 29.77 in1008.1 mb 0.00 in0.0 mm 0.00 in/hr0.0 mm/hr 0.01 in0.3 mm
04:10 AM 16.3°F-8.7°C 10.9°F-11.7°C 79% 16.0 mph WSW25.7 kmh WSW 31.0 mph49.9 kmh 29.77 in1008.1 mb 0.00 in0.0 mm 0.00 in/hr0.0 mm/hr 0.01 in0.3 mm
04:20 AM 16.3°F-8.7°C 11.2°F-11.6°C 80% 12.0 mph WSW19.3 kmh WSW 19.0 mph30.6 kmh 29.78 in1008.5 mb 0.00 in0.0 mm 0.00 in/hr0.0 mm/hr 0.01 in0.3 mm
04:30 AM 16.3°F-8.7°C 11.2°F-11.6°C 80% 22.0 mph WSW35.4 kmh WSW 25.0 mph40.2 kmh 29.78 in1008.5 mb 0.00 in0.0 mm 0.00 in/hr0.0 mm/hr 0.01 in0.3 mm
04:40 AM 16.3°F-8.7°C 11.2°F-11.6°C 80% 16.0 mph SW25.7 kmh SW 22.0 mph35.4 kmh 29.78 in1008.5 mb 0.00 in0.0 mm 0.00 in/hr0.0 mm/hr 0.01 in0.3 mm
04:50 AM 16.3°F-8.7°C 11.2°F-11.6°C 80% 16.0 mph SW25.7 kmh SW 23.0 mph37.0 kmh 29.78 in1008.5 mb 0.00 in0.0 mm 0.00 in/hr0.0 mm/hr 0.01 in0.3 mm
05:00 AM 16.3°F-8.7°C 10.9°F-11.7°C 79% 11.0 mph SW17.7 kmh SW 24.0 mph38.6 kmh 29.79 in1008.8 mb 0.00 in0.0 mm 0.00 in/hr0.0 mm/hr 0.01 in0.3 mm
05:10 AM 16.3°F-8.7°C 11.5°F-11.4°C 81% 4.0 mph W6.4 kmh W 23.0 mph37.0 kmh 29.79 in1008.8 mb 0.00 in0.0 mm 0.00 in/hr0.0 mm/hr 0.01 in0.3 mm
05:20 AM 16.3°F-8.7°C 11.8°F-11.2°C 82% 20.0 mph WSW32.2 kmh WSW 27.0 mph43.5 kmh 29.79 in1008.8 mb 0.00 in0.0 mm 0.00 in/hr0.0 mm/hr 0.01 in0.3 mm
05:30 AM 16.2°F-8.8°C 11.7°F-11.3°C 82% 10.0 mph SW16.1 kmh SW 21.0 mph33.8 kmh 29.79 in1008.8 mb 0.00 in0.0 mm 0.00 in/hr0.0 mm/hr 0.01 in0.3 mm
05:40 AM 16.3°F-8.7°C 12.1°F-11.1°C 83% 15.0 mph WSW24.1 kmh WSW 26.0 mph41.8 kmh 29.80 in1009.1 mb 0.00 in0.0 mm 0.00 in/hr0.0 mm/hr 0.01 in0.3 mm
05:50 AM 16.4°F-8.7°C 11.9°F-11.2°C 82% 11.0 mph SW17.7 kmh SW 21.0 mph33.8 kmh 29.80 in1009.1 mb 0.00 in0.0 mm 0.00 in/hr0.0 mm/hr 0.01 in0.3 mm
06:00 AM 16.4°F-8.7°C 11.9°F-11.2°C 82% 7.0 mph SW11.3 kmh SW 20.0 mph32.2 kmh 29.80 in1009.1 mb 0.00 in0.0 mm 0.00 in/hr0.0 mm/hr 0.01 in0.3 mm
06:10 AM 16.4°F-8.7°C 11.9°F-11.2°C 82% 7.0 mph W11.3 kmh W 21.0 mph33.8 kmh 29.81 in1009.5 mb 0.00 in0.0 mm 0.00 in/hr0.0 mm/hr 0.01 in0.3 mm
06:20 AM 16.5°F-8.6°C 12.0°F-11.1°C 82% 15.0 mph W24.1 kmh W 22.0 mph35.4 kmh 29.81 in1009.5 mb 0.00 in0.0 mm 0.00 in/hr0.0 mm/hr 0.01 in0.3 mm
06:30 AM 16.6°F-8.6°C 12.1°F-11.1°C 82% 5.0 mph SW8.0 kmh SW 17.0 mph27.4 kmh 29.82 in1009.8 mb 0.00 in0.0 mm 0.00 in/hr0.0 mm/hr 0.01 in0.3 mm
06:40 AM 16.7°F-8.5°C 12.2°F-11.0°C 82% 12.0 mph SW19.3 kmh SW 16.0 mph25.7 kmh 29.82 in1009.8 mb 0.00 in0.0 mm 0.00 in/hr0.0 mm/hr 0.01 in0.3 mm
06:50 AM 16.7°F-8.5°C 12.2°F-11.0°C 82% 5.0 mph SW8.0 kmh SW 17.0 mph27.4 kmh 29.83 in1010.2 mb 0.00 in0.0 mm 0.00 in/hr0.0 mm/hr 0.01 in0.3 mm
07:00 AM 16.8°F-8.4°C 12.3°F-10.9°C 82% 11.0 mph SW17.7 kmh SW 17.0 mph27.4 kmh 29.84 in1010.5 mb 0.00 in0.0 mm 0.00 in/hr0.0 mm/hr 0.01 in0.3 mm
07:10 AM 16.9°F-8.4°C 12.1°F-11.1°C 81% 11.0 mph SW17.7 kmh SW 22.0 mph35.4 kmh 29.84 in1010.5 mb 0.00 in0.0 mm 0.00 in/hr0.0 mm/hr 0.01 in0.3 mm
07:20 AM 17.0°F-8.3°C 12.5°F-10.8°C 82% 15.0 mph WSW24.1 kmh WSW 21.0 mph33.8 kmh 29.85 in1010.8 mb 0.00 in0.0 mm 0.00 in/hr0.0 mm/hr 0.01 in0.3 mm
07:30 AM 17.1°F-8.3°C 12.3°F-10.9°C 81% 17.0 mph WSW27.4 kmh WSW 19.0 mph30.6 kmh 29.86 in1011.2 mb 0.00 in0.0 mm 0.00 in/hr0.0 mm/hr 0.01 in0.3 mm
07:40 AM 17.2°F-8.2°C 12.1°F-11.1°C 80% 15.0 mph WSW24.1 kmh WSW 23.0 mph37.0 kmh 29.86 in1011.2 mb 0.00 in0.0 mm 0.00 in/hr0.0 mm/hr 0.01 in0.3 mm
07:50 AM 17.1°F-8.3°C 12.3°F-10.9°C 81% 7.0 mph WSW11.3 kmh WSW 15.0 mph24.1 kmh 29.87 in1011.5 mb 0.00 in0.0 mm 0.00 in/hr0.0 mm/hr 0.01 in0.3 mm
08:00 AM 17.1°F-8.3°C 12.3°F-10.9°C 81% 21.0 mph WSW33.8 kmh WSW 21.0 mph33.8 kmh 29.87 in1011.5 mb 0.00 in0.0 mm 0.00 in/hr0.0 mm/hr 0.01 in0.3 mm
08:10 AM 17.3°F-8.2°C 12.5°F-10.8°C 81% 16.0 mph WSW25.7 kmh WSW 20.0 mph32.2 kmh 29.88 in1011.9 mb 0.00 in0.0 mm 0.00 in/hr0.0 mm/hr 0.01 in0.3 mm
08:20 AM 17.3°F-8.2°C 11.9°F-11.2°C 79% 6.0 mph WSW9.7 kmh WSW 25.0 mph40.2 kmh 29.89 in1012.2 mb 0.00 in0.0 mm 0.00 in/hr0.0 mm/hr 0.01 in0.3 mm
08:30 AM 17.4°F-8.1°C 12.3°F-10.9°C 80% 5.0 mph WSW8.0 kmh WSW 24.0 mph38.6 kmh 29.89 in1012.2 mb 0.00 in0.0 mm 0.00 in/hr0.0 mm/hr 0.01 in0.3 mm
08:40 AM 17.4°F-8.1°C 12.0°F-11.1°C 79% 8.0 mph W12.9 kmh W 14.0 mph22.5 kmh 29.90 in1012.5 mb 0.00 in0.0 mm 0.00 in/hr0.0 mm/hr 0.01 in0.3 mm
08:50 AM 17.5°F-8.1°C 12.7°F-10.7°C 81% 11.0 mph WSW17.7 kmh WSW 21.0 mph33.8 kmh 29.90 in1012.5 mb 0.00 in0.0 mm 0.00 in/hr0.0 mm/hr 0.01 in0.3 mm
09:00 AM 17.4°F-8.1°C 12.6°F-10.8°C 81% 8.0 mph SSW12.9 kmh SSW 24.0 mph38.6 kmh 29.91 in1012.9 mb 0.00 in0.0 mm 0.00 in/hr0.0 mm/hr 0.01 in0.3 mm
09:10 AM 17.4°F-8.1°C 12.6°F-10.8°C 81% 11.0 mph W17.7 kmh W 20.0 mph32.2 kmh 29.91 in1012.9 mb 0.00 in0.0 mm 0.00 in/hr0.0 mm/hr 0.01 in0.3 mm
09:20 AM 17.6°F-8.0°C 12.2°F-11.0°C 79% 9.0 mph W14.5 kmh W 28.0 mph45.1 kmh 29.92 in1013.2 mb 0.00 in0.0 mm 0.00 in/hr0.0 mm/hr 0.01 in0.3 mm
09:30 AM 17.8°F-7.9°C 12.7°F-10.7°C 80% 4.0 mph WSW6.4 kmh WSW 24.0 mph38.6 kmh 29.92 in1013.2 mb 0.00 in0.0 mm 0.00 in/hr0.0 mm/hr 0.01 in0.3 mm
09:40 AM 18.0°F-7.8°C 12.9°F-10.6°C 80% 16.0 mph W25.7 kmh W 25.0 mph40.2 kmh 29.93 in1013.5 mb 0.00 in0.0 mm 0.00 in/hr0.0 mm/hr 0.01 in0.3 mm
09:50 AM 17.6°F-8.0°C 13.1°F-10.5°C 82% 7.0 mph SW11.3 kmh SW 19.0 mph30.6 kmh 29.94 in1013.9 mb 0.00 in0.0 mm 0.00 in/hr0.0 mm/hr 0.01 in0.3 mm
10:00 AM 17.5°F-8.1°C 13.2°F-10.4°C 83% 10.0 mph SW16.1 kmh SW 20.0 mph32.2 kmh 29.94 in1013.9 mb 0.00 in0.0 mm 0.00 in/hr0.0 mm/hr 0.01 in0.3 mm
10:10 AM 18.0°F-7.8°C 14.0°F-10.0°C 84% 9.0 mph W14.5 kmh W 15.0 mph24.1 kmh 29.95 in1014.2 mb 0.00 in0.0 mm 0.00 in/hr0.0 mm/hr 0.01 in0.3 mm
10:20 AM 18.1°F-7.7°C 14.1°F-9.9°C 84% 5.0 mph SW8.0 kmh SW 21.0 mph33.8 kmh 29.95 in1014.2 mb 0.00 in0.0 mm 0.00 in/hr0.0 mm/hr 0.01 in0.3 mm
10:30 AM 18.4°F-7.6°C 13.6°F-10.2°C 81% 19.0 mph WSW30.6 kmh WSW 21.0 mph33.8 kmh 29.96 in1014.6 mb 0.00 in0.0 mm 0.00 in/hr0.0 mm/hr 0.01 in0.3 mm
10:40 AM 18.4°F-7.6°C 13.0°F-10.6°C 79% 14.0 mph SW22.5 kmh SW 21.0 mph33.8 kmh 29.97 in1014.9 mb 0.00 in0.0 mm 0.00 in/hr0.0 mm/hr 0.01 in0.3 mm
10:50 AM 18.4°F-7.6°C 12.1°F-11.1°C 76% 9.0 mph SW14.5 kmh SW 23.0 mph37.0 kmh 29.98 in1015.2 mb 0.00 in0.0 mm 0.00 in/hr0.0 mm/hr 0.01 in0.3 mm
11:00 AM 18.4°F-7.6°C 12.4°F-10.9°C 77% 6.0 mph SW9.7 kmh SW 20.0 mph32.2 kmh 29.98 in1015.2 mb 0.00 in0.0 mm 0.00 in/hr0.0 mm/hr 0.01 in0.3 mm
11:10 AM 18.2°F-7.7°C 11.6°F-11.3°C 75% 20.0 mph WSW32.2 kmh WSW 27.0 mph43.5 kmh 29.99 in1015.6 mb 0.00 in0.0 mm 0.00 in/hr0.0 mm/hr 0.01 in0.3 mm
11:20 AM 18.7°F-7.4°C 12.4°F-10.9°C 76% 11.0 mph W17.7 kmh W 22.0 mph35.4 kmh 29.99 in1015.6 mb 0.00 in0.0 mm 0.00 in/hr0.0 mm/hr 0.01 in0.3 mm
11:30 AM 18.6°F-7.4°C 12.3°F-10.9°C 76% 16.0 mph WSW25.7 kmh WSW 22.0 mph35.4 kmh 29.99 in1015.6 mb 0.00 in0.0 mm 0.00 in/hr0.0 mm/hr 0.01 in0.3 mm
11:40 AM 18.7°F-7.4°C 12.1°F-11.1°C 75% 9.0 mph SW14.5 kmh SW 22.0 mph35.4 kmh 29.99 in1015.6 mb 0.00 in0.0 mm 0.00 in/hr0.0 mm/hr 0.01 in0.3 mm
11:50 AM 18.5°F-7.5°C 11.9°F-11.2°C 75% 12.0 mph SW19.3 kmh SW 22.0 mph35.4 kmh 29.99 in1015.6 mb 0.00 in0.0 mm 0.00 in/hr0.0 mm/hr 0.01 in0.3 mm
12:00 PM 18.6°F-7.4°C 12.3°F-10.9°C 76% 7.0 mph W11.3 kmh W 19.0 mph30.6 kmh 29.99 in1015.6 mb 0.00 in0.0 mm 0.00 in/hr0.0 mm/hr 0.01 in0.3 mm
12:10 PM 19.0°F-7.2°C 13.3°F-10.4°C 78% 10.0 mph WSW16.1 kmh WSW 21.0 mph33.8 kmh 29.99 in1015.6 mb 0.00 in0.0 mm 0.00 in/hr0.0 mm/hr 0.01 in0.3 mm
12:20 PM 19.0°F-7.2°C 13.6°F-10.2°C 79% 19.0 mph WSW30.6 kmh WSW 19.0 mph30.6 kmh 29.99 in1015.6 mb 0.00 in0.0 mm 0.00 in/hr0.0 mm/hr 0.01 in0.3 mm
12:30 PM 19.0°F-7.2°C 13.3°F-10.4°C 78% 10.0 mph SW16.1 kmh SW 16.0 mph25.7 kmh 30.00 in1015.9 mb 0.00 in0.0 mm 0.00 in/hr0.0 mm/hr 0.01 in0.3 mm
12:40 PM 19.2°F-7.1°C 13.5°F-10.3°C 78% 5.0 mph SW8.0 kmh SW 17.0 mph27.4 kmh 30.00 in1015.9 mb 0.00 in0.0 mm 0.00 in/hr0.0 mm/hr 0.01 in0.3 mm
12:50 PM 19.3°F-7.1°C 13.9°F-10.1°C 79% 4.0 mph SW6.4 kmh SW 17.0 mph27.4 kmh 30.00 in1015.9 mb 0.00 in0.0 mm 0.00 in/hr0.0 mm/hr 0.01 in0.3 mm
01:00 PM 19.0°F-7.2°C 13.3°F-10.4°C 78% 5.0 mph N8.0 kmh N 18.0 mph29.0 kmh 30.01 in1016.3 mb 0.00 in0.0 mm 0.00 in/hr0.0 mm/hr 0.01 in0.3 mm
01:10 PM 19.1°F-7.2°C 13.1°F-10.5°C 77% 15.0 mph W24.1 kmh W 15.0 mph24.1 kmh 30.01 in1016.3 mb 0.00 in0.0 mm 0.00 in/hr0.0 mm/hr 0.01 in0.3 mm
01:20 PM 19.8°F-6.8°C 13.8°F-10.1°C 77% 9.0 mph WSW14.5 kmh WSW 15.0 mph24.1 kmh 30.01 in1016.3 mb 0.00 in0.0 mm 0.00 in/hr0.0 mm/hr 0.01 in0.3 mm
01:30 PM 19.5°F-6.9°C 12.9°F-10.6°C 75% 15.0 mph WSW24.1 kmh WSW 28.0 mph45.1 kmh 30.01 in1016.3 mb 0.00 in0.0 mm 0.00 in/hr0.0 mm/hr 0.01 in0.3 mm
01:40 PM 19.7°F-6.8°C 13.1°F-10.5°C 75% 10.0 mph WSW16.1 kmh WSW 21.0 mph33.8 kmh 30.02 in1016.6 mb 0.00 in0.0 mm 0.00 in/hr0.0 mm/hr 0.01 in0.3 mm
01:50 PM 19.5°F-6.9°C 13.2°F-10.4°C 76% 5.0 mph WSW8.0 kmh WSW 19.0 mph30.6 kmh 30.02 in1016.6 mb 0.00 in0.0 mm 0.00 in/hr0.0 mm/hr 0.01 in0.3 mm
02:00 PM 19.7°F-6.8°C 14.0°F-10.0°C 78% 8.0 mph W12.9 kmh W 20.0 mph32.2 kmh 30.02 in1016.6 mb 0.00 in0.0 mm 0.00 in/hr0.0 mm/hr 0.01 in0.3 mm
02:10 PM 19.8°F-6.8°C 14.4°F-9.8°C 79% 5.0 mph WSW8.0 kmh WSW 16.0 mph25.7 kmh 30.03 in1016.9 mb 0.00 in0.0 mm 0.00 in/hr0.0 mm/hr 0.01 in0.3 mm
02:20 PM 20.2°F-6.6°C 14.5°F-9.7°C 78% 8.0 mph WSW12.9 kmh WSW 12.0 mph19.3 kmh 30.03 in1016.9 mb 0.00 in0.0 mm 0.00 in/hr0.0 mm/hr 0.01 in0.3 mm
02:30 PM 19.7°F-6.8°C 14.0°F-10.0°C 78% 5.0 mph WSW8.0 kmh WSW 17.0 mph27.4 kmh 30.03 in1016.9 mb 0.00 in0.0 mm 0.00 in/hr0.0 mm/hr 0.01 in0.3 mm
02:40 PM 19.7°F-6.8°C 14.5°F-9.7°C 80% 7.0 mph SW11.3 kmh SW 18.0 mph29.0 kmh 30.03 in1016.9 mb 0.00 in0.0 mm 0.00 in/hr0.0 mm/hr 0.01 in0.3 mm
02:50 PM 20.0°F-6.7°C 14.8°F-9.6°C 80% 3.0 mph SW4.8 kmh SW 13.0 mph20.9 kmh 30.04 in1017.3 mb 0.00 in0.0 mm 0.00 in/hr0.0 mm/hr 0.01 in0.3 mm
03:00 PM 20.1°F-6.6°C 14.7°F-9.6°C 79% 6.0 mph SW9.7 kmh SW 15.0 mph24.1 kmh 30.04 in1017.3 mb 0.00 in0.0 mm 0.00 in/hr0.0 mm/hr 0.01 in0.3 mm
03:10 PM 20.0°F-6.7°C 14.3°F-9.8°C 78% 7.0 mph WSW11.3 kmh WSW 18.0 mph29.0 kmh 30.05 in1017.6 mb 0.00 in0.0 mm 0.00 in/hr0.0 mm/hr 0.01 in0.3 mm
03:20 PM 20.0°F-6.7°C 14.3°F-9.8°C 78% 6.0 mph WSW9.7 kmh WSW 20.0 mph32.2 kmh 30.05 in1017.6 mb 0.00 in0.0 mm 0.00 in/hr0.0 mm/hr 0.01 in0.3 mm
03:30 PM 20.2°F-6.6°C 14.5°F-9.7°C 78% 6.0 mph WSW9.7 kmh WSW 16.0 mph25.7 kmh 30.06 in1017.9 mb 0.00 in0.0 mm 0.00 in/hr0.0 mm/hr 0.01 in0.3 mm
03:40 PM 20.1°F-6.6°C 14.4°F-9.8°C 78% 5.0 mph WSW8.0 kmh WSW 14.0 mph22.5 kmh 30.06 in1017.9 mb 0.00 in0.0 mm 0.00 in/hr0.0 mm/hr 0.01 in0.3 mm
03:50 PM 20.3°F-6.5°C 14.6°F-9.7°C 78% 10.0 mph WSW16.1 kmh WSW 19.0 mph30.6 kmh 30.06 in1017.9 mb 0.00 in0.0 mm 0.00 in/hr0.0 mm/hr 0.01 in0.3 mm
04:00 PM 20.1°F-6.6°C 14.4°F-9.8°C 78% 7.0 mph SW11.3 kmh SW 15.0 mph24.1 kmh 30.07 in1018.3 mb 0.00 in0.0 mm 0.00 in/hr0.0 mm/hr 0.01 in0.3 mm
04:10 PM 20.2°F-6.6°C 14.5°F-9.7°C 78% 9.0 mph WSW14.5 kmh WSW 12.0 mph19.3 kmh 30.07 in1018.3 mb 0.00 in0.0 mm 0.00 in/hr0.0 mm/hr 0.01 in0.3 mm
04:20 PM 20.2°F-6.6°C 14.7°F-9.6°C 79% 5.0 mph SW8.0 kmh SW 13.0 mph20.9 kmh 30.08 in1018.6 mb 0.00 in0.0 mm 0.00 in/hr0.0 mm/hr 0.01 in0.3 mm
04:30 PM 20.3°F-6.5°C 14.8°F-9.6°C 79% 3.0 mph WSW4.8 kmh WSW 14.0 mph22.5 kmh 30.08 in1018.6 mb 0.00 in0.0 mm 0.00 in/hr0.0 mm/hr 0.01 in0.3 mm
04:50 PM 20.4°F-6.4°C 14.7°F-9.6°C 78% 9.0 mph SW14.5 kmh SW 17.0 mph27.4 kmh 30.09 in1019.0 mb 0.00 in0.0 mm 0.00 in/hr0.0 mm/hr 0.01 in0.3 mm
05:00 PM 20.4°F-6.4°C 14.9°F-9.5°C 79% 5.0 mph WSW8.0 kmh WSW 16.0 mph25.7 kmh 30.10 in1019.3 mb 0.00 in0.0 mm 0.00 in/hr0.0 mm/hr 0.01 in0.3 mm
05:10 PM 20.4°F-6.4°C 14.9°F-9.5°C 79% 7.0 mph SW11.3 kmh SW 14.0 mph22.5 kmh 30.10 in1019.3 mb 0.00 in0.0 mm 0.00 in/hr0.0 mm/hr 0.01 in0.3 mm
05:20 PM 20.4°F-6.4°C 15.2°F-9.3°C 80% 3.0 mph SW4.8 kmh SW 11.0 mph17.7 kmh 30.10 in1019.3 mb 0.00 in0.0 mm 0.00 in/hr0.0 mm/hr 0.01 in0.3 mm
05:30 PM 20.2°F-6.6°C 15.0°F-9.4°C 80% 4.0 mph WSW6.4 kmh WSW 14.0 mph22.5 kmh 30.11 in1019.6 mb 0.00 in0.0 mm 0.00 in/hr0.0 mm/hr 0.01 in0.3 mm
05:40 PM 20.2°F-6.6°C 15.3°F-9.3°C 81% 11.0 mph WSW17.7 kmh WSW 22.0 mph35.4 kmh 30.11 in1019.6 mb 0.00 in0.0 mm 0.00 in/hr0.0 mm/hr 0.01 in0.3 mm
05:50 PM 20.2°F-6.6°C 14.7°F-9.6°C 79% 12.0 mph WSW19.3 kmh WSW 15.0 mph24.1 kmh 30.11 in1019.6 mb 0.00 in0.0 mm 0.00 in/hr0.0 mm/hr 0.01 in0.3 mm
06:01 PM 20.2°F-6.6°C 14.7°F-9.6°C 79% 15.0 mph WSW24.1 kmh WSW 19.0 mph30.6 kmh 30.12 in1020.0 mb 0.00 in0.0 mm 0.00 in/hr0.0 mm/hr 0.01 in0.3 mm
06:10 PM 20.1°F-6.6°C 14.4°F-9.8°C 78% 5.0 mph WSW8.0 kmh WSW 21.0 mph33.8 kmh 30.12 in1020.0 mb 0.00 in0.0 mm 0.00 in/hr0.0 mm/hr 0.01 in0.3 mm
06:20 PM 20.1°F-6.6°C 14.9°F-9.5°C 80% 3.0 mph SW4.8 kmh SW 13.0 mph20.9 kmh 30.13 in1020.3 mb 0.00 in0.0 mm 0.00 in/hr0.0 mm/hr 0.01 in0.3 mm
06:30 PM 20.0°F-6.7°C 15.4°F-9.2°C 82% 11.0 mph SW17.7 kmh SW 11.0 mph17.7 kmh 30.13 in1020.3 mb 0.00 in0.0 mm 0.00 in/hr0.0 mm/hr 0.01 in0.3 mm
06:40 PM 20.1°F-6.6°C 15.8°F-9.0°C 83% 5.0 mph SW8.0 kmh SW 9.0 mph14.5 kmh 30.14 in1020.7 mb 0.00 in0.0 mm 0.00 in/hr0.0 mm/hr 0.01 in0.3 mm
06:50 PM 20.0°F-6.7°C 15.1°F-9.4°C 81% 4.0 mph WSW6.4 kmh WSW 14.0 mph22.5 kmh 30.14 in1020.7 mb 0.00 in0.0 mm 0.00 in/hr0.0 mm/hr 0.01 in0.3 mm
07:10 PM 20.2°F-6.6°C 14.7°F-9.6°C 79% 11.0 mph SW17.7 kmh SW 15.0 mph24.1 kmh 30.15 in1021.0 mb 0.00 in0.0 mm 0.00 in/hr0.0 mm/hr 0.01 in0.3 mm
07:20 PM 20.2°F-6.6°C 15.0°F-9.4°C 80% 6.0 mph WSW9.7 kmh WSW 12.0 mph19.3 kmh 30.15 in1021.0 mb 0.00 in0.0 mm 0.00 in/hr0.0 mm/hr 0.01 in0.3 mm
07:30 PM 20.3°F-6.5°C 14.8°F-9.6°C 79% 5.0 mph WSW8.0 kmh WSW 11.0 mph17.7 kmh 30.15 in1021.0 mb 0.00 in0.0 mm 0.00 in/hr0.0 mm/hr 0.01 in0.3 mm
07:40 PM 20.2°F-6.6°C 14.5°F-9.7°C 78% 4.0 mph WSW6.4 kmh WSW 15.0 mph24.1 kmh 30.15 in1021.0 mb 0.00 in0.0 mm 0.00 in/hr0.0 mm/hr 0.01 in0.3 mm
07:50 PM 20.2°F-6.6°C 14.7°F-9.6°C 79% 7.0 mph WSW11.3 kmh WSW 14.0 mph22.5 kmh 30.15 in1021.0 mb 0.00 in0.0 mm 0.00 in/hr0.0 mm/hr 0.01 in0.3 mm
08:00 PM 20.2°F-6.6°C 14.7°F-9.6°C 79% 3.0 mph WSW4.8 kmh WSW 13.0 mph20.9 kmh 30.15 in1021.0 mb 0.00 in0.0 mm 0.00 in/hr0.0 mm/hr 0.01 in0.3 mm
08:10 PM 20.2°F-6.6°C 15.0°F-9.4°C 80% 5.0 mph WSW8.0 kmh WSW 15.0 mph24.1 kmh 30.16 in1021.3 mb 0.00 in0.0 mm 0.00 in/hr0.0 mm/hr 0.01 in0.3 mm
08:20 PM 20.3°F-6.5°C 15.1°F-9.4°C 80% 9.0 mph SW14.5 kmh SW 16.0 mph25.7 kmh 30.16 in1021.3 mb 0.00 in0.0 mm 0.00 in/hr0.0 mm/hr 0.01 in0.3 mm
08:30 PM 20.3°F-6.5°C 15.1°F-9.4°C 80% 3.0 mph W4.8 kmh W 13.0 mph20.9 kmh 30.16 in1021.3 mb 0.00 in0.0 mm 0.00 in/hr0.0 mm/hr 0.01 in0.3 mm
08:40 PM 20.2°F-6.6°C 15.0°F-9.4°C 80% 5.0 mph W8.0 kmh W 18.0 mph29.0 kmh 30.16 in1021.3 mb 0.00 in0.0 mm 0.00 in/hr0.0 mm/hr 0.01 in0.3 mm
08:50 PM 20.0°F-6.7°C 15.1°F-9.4°C 81% 4.0 mph SW6.4 kmh SW 12.0 mph19.3 kmh 30.16 in1021.3 mb 0.00 in0.0 mm 0.00 in/hr0.0 mm/hr 0.01 in0.3 mm
09:00 PM 20.0°F-6.7°C 15.4°F-9.2°C 82% 6.0 mph WSW9.7 kmh WSW 12.0 mph19.3 kmh 30.16 in1021.3 mb 0.00 in0.0 mm 0.00 in/hr0.0 mm/hr 0.01 in0.3 mm
09:10 PM 19.9°F-6.7°C 15.6°F-9.1°C 83% 3.0 mph WSW4.8 kmh WSW 15.0 mph24.1 kmh 30.16 in1021.3 mb 0.00 in0.0 mm 0.00 in/hr0.0 mm/hr 0.01 in0.3 mm
09:20 PM 19.9°F-6.7°C 15.9°F-8.9°C 84% 3.0 mph WSW4.8 kmh WSW 12.0 mph19.3 kmh 30.16 in1021.3 mb 0.00 in0.0 mm 0.00 in/hr0.0 mm/hr 0.01 in0.3 mm
09:30 PM 19.7°F-6.8°C 15.7°F-9.1°C 84% 2.0 mph WSW3.2 kmh WSW 14.0 mph22.5 kmh 30.16 in1021.3 mb 0.00 in0.0 mm 0.00 in/hr0.0 mm/hr 0.01 in0.3 mm
09:40 PM 19.6°F-6.9°C 16.1°F-8.8°C 86% 3.0 mph NW4.8 kmh NW 10.0 mph16.1 kmh 30.16 in1021.3 mb 0.00 in0.0 mm 0.00 in/hr0.0 mm/hr 0.01 in0.3 mm
09:50 PM 19.5°F-6.9°C 16.0°F-8.9°C 86% 2.0 mph WSW3.2 kmh WSW 9.0 mph14.5 kmh 30.16 in1021.3 mb 0.00 in0.0 mm 0.00 in/hr0.0 mm/hr 0.01 in0.3 mm
10:00 PM 19.4°F-7.0°C 16.2°F-8.8°C 87% 6.0 mph WSW9.7 kmh WSW 10.0 mph16.1 kmh 30.16 in1021.3 mb 0.00 in0.0 mm 0.00 in/hr0.0 mm/hr 0.01 in0.3 mm
10:10 PM 19.5°F-6.9°C 16.0°F-8.9°C 86% 1.0 mph WSW1.6 kmh WSW 11.0 mph17.7 kmh 30.17 in1021.7 mb 0.00 in0.0 mm 0.00 in/hr0.0 mm/hr 0.01 in0.3 mm
10:20 PM 19.5°F-6.9°C 15.7°F-9.1°C 85% 3.0 mph WSW4.8 kmh WSW 10.0 mph16.1 kmh 30.17 in1021.7 mb 0.00 in0.0 mm 0.00 in/hr0.0 mm/hr 0.01 in0.3 mm
10:30 PM 19.5°F-6.9°C 15.7°F-9.1°C 85% 2.0 mph SW3.2 kmh SW 7.0 mph11.3 kmh 30.17 in1021.7 mb 0.00 in0.0 mm 0.00 in/hr0.0 mm/hr 0.01 in0.3 mm
10:40 PM 19.5°F-6.9°C 15.5°F-9.2°C 84% 2.0 mph WSW3.2 kmh WSW 10.0 mph16.1 kmh 30.17 in1021.7 mb 0.00 in0.0 mm 0.00 in/hr0.0 mm/hr 0.01 in0.3 mm
10:50 PM 19.6°F-6.9°C 15.6°F-9.1°C 84% 4.0 mph WSW6.4 kmh WSW 6.0 mph9.7 kmh 30.17 in1021.7 mb 0.00 in0.0 mm 0.00 in/hr0.0 mm/hr 0.01 in0.3 mm
11:00 PM 19.5°F-6.9°C 15.2°F-9.3°C 83% 6.0 mph WSW9.7 kmh WSW 12.0 mph19.3 kmh 30.17 in1021.7 mb 0.00 in0.0 mm 0.00 in/hr0.0 mm/hr 0.01 in0.3 mm
11:10 PM 19.5°F-6.9°C 15.2°F-9.3°C 83% 3.0 mph SW4.8 kmh SW 10.0 mph16.1 kmh 30.17 in1021.7 mb 0.00 in0.0 mm 0.00 in/hr0.0 mm/hr 0.01 in0.3 mm
11:20 PM 19.5°F-6.9°C 14.9°F-9.5°C 82% 4.0 mph WSW6.4 kmh WSW 12.0 mph19.3 kmh 30.17 in1021.7 mb 0.00 in0.0 mm 0.00 in/hr0.0 mm/hr 0.01 in0.3 mm
11:30 PM 19.5°F-6.9°C 14.9°F-9.5°C 82% 5.0 mph SSW8.0 kmh SSW 11.0 mph17.7 kmh 30.18 in1022.0 mb 0.00 in0.0 mm 0.00 in/hr0.0 mm/hr 0.01 in0.3 mm
11:40 PM 19.5°F-6.9°C 14.9°F-9.5°C 82% 6.0 mph WSW9.7 kmh WSW 13.0 mph20.9 kmh 30.18 in1022.0 mb 0.00 in0.0 mm 0.00 in/hr0.0 mm/hr 0.01 in0.3 mm
11:50 PM 19.5°F-6.9°C 14.6°F-9.7°C 81% 9.0 mph W14.5 kmh W 11.0 mph17.7 kmh 30.18 in1022.0 mb 0.00 in0.0 mm 0.00 in/hr0.0 mm/hr 0.01 in0.3 mm